Headlee Ranch, South Dakota
Current Conditions -  °F | °C
As of 11:55 AM on Thursday 27 Nov 2014 (Local Time) from KPHP Reporting Station
Overcast Overcast  
Wind Chill: 17°   Ceiling: 10000
Heat Index: 28°   Visibility: 10mi
Dew Point: 18°   Wind: 13mph
Humidity: 66%   Direction: 140°SE
Pressure: 30.06"   Gusts: NA
Location:  43.7587°N, 101.898°W
Report Text: KPHP 271855Z AUTO 14011KT 10SM OVC100 M02/M08 A3006 RMK AO2 PRESFR SLP204 T10221078
Loading
Personal Weather Stations






























Interactive Weather Map New forecast layout! Learn more

10-Day Weather Forecast

Advertisements
Track Severe Weather on mobile